Time;durP1;ratioP1;P1;durP2;ratioP2;P2;SDS_P1;SDS_P2;PMS_P1;PMS_P2;Temp;Humidity;BMP_temperature;BMP_pressure;BME280_temperature;BME280_humidity;BME280_pressure;Samples;Min_cycle;Max_cycle;Signal;HPM_P1;HPM_P2
2021/05/30 00:00:06;;;;;;;19.03;12.83;;;11.60;98.30;;;;;;4096764;29;20571;-80
2021/05/30 00:02:08;;;;;;;20.00;12.33;;;11.60;98.30;;;;;;4096437;29;20560;-81
2021/05/30 00:04:11;;;;;;;21.40;13.40;;;11.60;98.30;;;;;;4096504;28;20544;-82
2021/05/30 00:06:14;;;;;;;20.43;12.57;;;11.60;98.30;;;;;;4097000;29;20940;-81
2021/05/30 00:08:18;;;;;;;18.73;12.17;;;11.50;98.30;;;;;;4099883;29;20537;-81
2021/05/30 00:10:20;;;;;;;20.10;12.83;;;11.50;98.30;;;;;;4100027;29;20476;-81
2021/05/30 00:12:26;;;;;;;17.17;12.53;;;11.50;98.30;;;;;;4098723;29;20831;-82
2021/05/30 00:14:29;;;;;;;18.23;11.90;;;11.50;98.30;;;;;;4098926;28;20544;-81
2021/05/30 00:16:32;;;;;;;19.27;12.37;;;11.40;98.30;;;;;;4100436;29;20529;-83
2021/05/30 00:18:35;;;;;;;20.60;11.90;;;11.40;98.30;;;;;;4100929;29;20476;-81
2021/05/30 00:20:37;;;;;;;18.00;12.27;;;11.40;98.30;;;;;;4101041;29;20491;-81
2021/05/30 00:22:43;;;;;;;17.47;13.60;;;11.50;98.30;;;;;;4100416;29;20579;-81
2021/05/30 00:24:46;;;;;;;13.13;11.70;;;11.40;98.30;;;;;;4099441;28;20502;-82
2021/05/30 00:26:48;;;;;;;16.93;12.27;;;11.40;98.30;;;;;;4099326;29;20476;-81
2021/05/30 00:28:51;;;;;;;15.70;12.60;;;11.40;98.30;;;;;;4099073;29;20938;-81
2021/05/30 00:30:54;;;;;;;21.07;12.97;;;11.40;98.30;;;;;;4097501;29;20480;-81
2021/05/30 00:32:56;;;;;;;20.47;12.50;;;11.40;98.30;;;;;;4097195;29;20479;-82
2021/05/30 00:34:59;;;;;;;17.67;13.30;;;11.40;98.30;;;;;;4097666;28;20485;-81
2021/05/30 00:37:01;;;;;;;19.20;13.23;;;11.40;98.30;;;;;;4097392;29;20492;-81
2021/05/30 00:39:05;;;;;;;20.33;14.40;;;11.40;98.30;;;;;;4097810;29;21064;-81
2021/05/30 00:41:08;;;;;;;19.20;14.20;;;11.30;98.30;;;;;;4095925;29;20878;-83
2021/05/30 00:43:10;;;;;;;22.00;14.10;;;11.30;98.30;;;;;;4096613;28;20979;-84
2021/05/30 00:45:13;;;;;;;18.60;13.17;;;11.30;98.30;;;;;;4097467;28;20480;-82
2021/05/30 00:47:16;;;;;;;25.50;12.47;;;11.20;98.30;;;;;;4097277;28;20478;-82
2021/05/30 00:49:18;;;;;;;20.67;12.87;;;11.20;98.30;;;;;;4097251;29;20484;-82
2021/05/30 00:51:21;;;;;;;20.23;13.17;;;11.20;98.30;;;;;;4097774;29;20552;-83
2021/05/30 00:53:24;;;;;;;21.20;13.20;;;11.10;98.30;;;;;;4096066;29;20473;-82
2021/05/30 00:55:27;;;;;;;16.53;12.53;;;11.20;98.30;;;;;;4096692;28;21060;-82
2021/05/30 00:57:30;;;;;;;19.77;13.47;;;11.10;98.30;;;;;;4098357;28;20496;-83
2021/05/30 00:59:32;;;;;;;17.10;13.53;;;11.10;98.30;;;;;;4098876;29;20471;-82
2021/05/30 01:01:35;;;;;;;21.60;12.90;;;11.20;98.30;;;;;;4098839;29;20879;-82
2021/05/30 01:03:39;;;;;;;29.00;15.23;;;11.20;98.30;;;;;;4098688;28;20497;-81
2021/05/30 01:05:41;;;;;;;17.20;13.67;;;11.20;98.30;;;;;;4097334;29;20469;-82
2021/05/30 01:07:46;;;;;;;26.30;13.07;;;11.20;98.30;;;;;;4098151;29;20520;-81
2021/05/30 01:09:50;;;;;;;24.87;14.10;;;11.10;98.30;;;;;;4095886;29;20488;-81
2021/05/30 01:11:55;;;;;;;19.00;14.00;;;11.10;98.30;;;;;;4096522;29;20584;-82
2021/05/30 01:13:58;;;;;;;19.27;13.43;;;11.10;98.30;;;;;;4095638;28;20497;-81
2021/05/30 01:16:01;;;;;;;20.50;13.20;;;11.00;98.30;;;;;;4096225;29;20547;-83
2021/05/30 01:18:04;;;;;;;19.10;13.30;;;10.90;98.30;;;;;;4096674;29;20956;-81
2021/05/30 01:20:11;;;;;;;21.00;13.27;;;10.80;98.30;;;;;;4097428;29;20481;-82
2021/05/30 01:22:15;;;;;;;18.80;12.93;;;10.80;98.30;;;;;;4097157;29;20474;-81
2021/05/30 01:24:18;;;;;;;18.93;13.00;;;10.70;98.30;;;;;;4096848;28;20503;-81
2021/05/30 01:26:21;;;;;;;17.80;12.80;;;10.60;98.30;;;;;;4096551;29;20480;-81
2021/05/30 01:28:23;;;;;;;21.17;14.10;;;10.50;98.30;;;;;;4097155;29;20523;-81
2021/05/30 01:30:26;;;;;;;19.10;13.93;;;10.50;98.30;;;;;;4096733;29;20469;-81
2021/05/30 01:32:28;;;;;;;18.57;13.10;;;10.20;98.30;;;;;;4095854;29;20517;-81
2021/05/30 01:34:33;;;;;;;22.20;12.77;;;10.10;98.30;;;;;;4094838;28;20493;-81
2021/05/30 01:36:35;;;;;;;17.47;11.80;;;9.90;98.30;;;;;;4097204;29;20506;-82
2021/05/30 01:38:38;;;;;;;19.50;14.60;;;9.70;98.30;;;;;;4096257;29;20501;-81
2021/05/30 01:40:42;;;;;;;26.87;13.23;;;9.50;98.30;;;;;;4095522;29;20991;-81
2021/05/30 01:42:44;;;;;;;20.33;13.37;;;9.40;98.30;;;;;;4097276;29;20469;-80
2021/05/30 01:44:47;;;;;;;27.53;14.27;;;9.50;98.30;;;;;;4094972;28;20493;-80
2021/05/30 01:46:50;;;;;;;20.50;12.27;;;9.80;98.30;;;;;;4096738;29;20481;-81
2021/05/30 01:48:52;;;;;;;21.03;13.10;;;10.00;98.30;;;;;;4095588;29;20469;-81
2021/05/30 01:50:55;;;;;;;21.90;12.90;;;10.10;98.30;;;;;;4095495;29;20465;-81
2021/05/30 01:53:02;;;;;;;23.10;13.93;;;10.10;98.30;;;;;;4096351;29;20473;-80
2021/05/30 01:55:07;;;;;;;20.33;13.30;;;10.20;98.30;;;;;;4095192;28;20488;-81
2021/05/30 01:57:10;;;;;;;14.03;11.57;;;10.30;98.30;;;;;;4095593;29;20497;-81
2021/05/30 01:59:12;;;;;;;18.87;13.10;;;10.30;98.30;;;;;;4096667;29;20856;-81
2021/05/30 02:01:16;;;;;;;17.97;12.33;;;10.30;98.30;;;;;;4095095;29;20929;-80
2021/05/30 02:03:19;;;;;;;21.77;13.07;;;10.40;98.30;;;;;;4096499;28;20905;-81
2021/05/30 02:05:23;;;;;;;21.07;12.80;;;10.50;98.30;;;;;;4095399;29;20480;-80
2021/05/30 02:07:26;;;;;;;20.20;13.40;;;10.50;98.30;;;;;;4095355;28;20489;-84
2021/05/30 02:09:30;;;;;;;16.63;12.17;;;10.50;98.30;;;;;;4096854;29;20472;-82
2021/05/30 02:11:33;;;;;;;18.03;12.00;;;10.50;98.30;;;;;;4094922;29;20473;-82
2021/05/30 02:13:36;;;;;;;22.47;13.40;;;10.50;98.30;;;;;;4093928;28;20504;-82
2021/05/30 02:15:39;;;;;;;19.63;13.87;;;10.50;98.30;;;;;;4095963;29;20470;-82
2021/05/30 02:17:42;;;;;;;16.80;12.90;;;10.50;98.30;;;;;;4096689;29;20540;-81
2021/05/30 02:19:45;;;;;;;17.13;13.27;;;10.40;98.30;;;;;;4095190;29;20480;-82
2021/05/30 02:21:49;;;;;;;19.87;12.80;;;10.40;98.30;;;;;;4094866;29;20499;-82
2021/05/30 02:23:52;;;;;;;21.00;14.33;;;10.40;98.30;;;;;;4094536;28;20580;-80
2021/05/30 02:25:54;;;;;;;21.97;13.70;;;10.30;98.30;;;;;;4097138;29;20480;-81
2021/05/30 02:27:57;;;;;;;21.80;14.80;;;10.30;98.30;;;;;;4092909;29;20466;-81
2021/05/30 02:30:01;;;;;;;20.37;14.20;;;10.10;98.30;;;;;;4096357;29;20476;-81
2021/05/30 02:32:05;;;;;;;22.40;15.10;;;10.00;98.30;;;;;;4097445;29;21428;-81
2021/05/30 02:34:08;;;;;;;19.27;13.70;;;9.80;98.30;;;;;;4097921;28;20491;-80
2021/05/30 02:36:10;;;;;;;24.97;15.50;;;9.70;98.30;;;;;;4094460;29;20485;-82
2021/05/30 02:38:12;;;;;;;24.10;16.20;;;9.50;98.30;;;;;;4098207;29;20848;-80
2021/05/30 02:40:16;;;;;;;22.77;15.37;;;9.40;98.30;;;;;;4097354;29;21057;-82
2021/05/30 02:42:20;;;;;;;25.20;16.90;;;9.30;98.30;;;;;;4094340;29;21047;-81
2021/05/30 02:44:22;;;;;;;26.20;16.10;;;9.30;98.30;;;;;;4097758;28;20496;-81
2021/05/30 02:46:26;;;;;;;26.43;16.40;;;9.10;98.30;;;;;;4094584;29;20477;-81
2021/05/30 02:48:28;;;;;;;28.03;17.13;;;9.10;98.30;;;;;;4093372;29;20472;-81
2021/05/30 02:50:31;;;;;;;24.13;16.57;;;8.90;98.30;;;;;;4091725;29;20477;-80
2021/05/30 02:52:34;;;;;;;29.17;17.97;;;8.70;98.30;;;;;;4097934;29;20672;-80
2021/05/30 02:54:37;;;;;;;28.70;18.00;;;8.60;98.30;;;;;;4096563;28;20479;-80
2021/05/30 02:56:39;;;;;;;30.70;17.70;;;8.60;98.30;;;;;;4096964;29;21086;-80
2021/05/30 02:58:42;;;;;;;26.57;16.90;;;8.50;98.30;;;;;;4094502;29;20503;-81
2021/05/30 03:00:47;;;;;;;28.27;20.07;;;8.50;98.30;;;;;;4096685;29;20545;-80
2021/05/30 03:02:50;;;;;;;32.40;21.73;;;8.50;98.30;;;;;;4096423;29;20469;-81
2021/05/30 03:04:53;;;;;;;32.67;18.00;;;8.50;98.30;;;;;;4096412;28;20499;-80
2021/05/30 03:06:55;;;;;;;37.00;19.53;;;8.50;98.30;;;;;;4097593;29;20443;-82
2021/05/30 03:08:58;;;;;;;26.80;18.00;;;8.60;98.30;;;;;;4097909;29;20806;-81
2021/05/30 03:11:01;;;;;;;26.63;17.67;;;8.60;98.30;;;;;;4094000;29;20572;-81
2021/05/30 03:13:04;;;;;;;31.07;20.03;;;8.60;98.30;;;;;;4093897;29;21226;-80
2021/05/30 03:15:07;;;;;;;33.87;19.90;;;8.60;98.30;;;;;;4096074;29;20550;-81
2021/05/30 03:17:10;;;;;;;29.00;18.43;;;8.60;98.30;;;;;;4093777;29;20558;-82
2021/05/30 03:19:13;;;;;;;30.87;18.67;;;8.60;98.30;;;;;;4096109;28;20494;-81
2021/05/30 03:21:24;;;;;;;32.63;17.70;;;8.50;98.30;;;;;;4100308;29;20873;-81
2021/05/30 03:23:27;;;;;;;34.43;18.20;;;8.40;98.30;;;;;;4096602;28;20467;-80
2021/05/30 03:25:29;;;;;;;36.30;19.63;;;8.40;98.30;;;;;;4099445;29;20553;-80
2021/05/30 03:27:32;;;;;;;30.77;19.00;;;8.50;98.30;;;;;;4098159;29;20465;-80
2021/05/30 03:29:34;;;;;;;33.10;22.13;;;8.40;98.30;;;;;;4099583;29;20443;-80
2021/05/30 03:31:37;;;;;;;37.07;21.47;;;8.40;98.30;;;;;;4098298;28;20452;-81
2021/05/30 03:33:39;;;;;;;35.63;19.23;;;8.30;98.30;;;;;;4098267;28;20472;-80
2021/05/30 03:35:44;;;;;;;31.53;19.57;;;8.20;98.30;;;;;;4096173;29;20902;-81
2021/05/30 03:37:47;;;;;;;32.30;21.07;;;8.10;98.30;;;;;;4097734;29;20459;-81
2021/05/30 03:39:53;;;;;;;33.33;18.73;;;8.20;98.30;;;;;;4099230;29;20449;-81
2021/05/30 03:41:56;;;;;;;34.80;19.30;;;8.30;98.30;;;;;;4098720;29;20480;-81
2021/05/30 03:43:59;;;;;;;28.47;18.97;;;8.30;98.30;;;;;;4097764;28;20525;-80
2021/05/30 03:46:03;;;;;;;34.77;19.30;;;8.40;98.30;;;;;;4097018;29;20480;-80
2021/05/30 03:48:07;;;;;;;40.27;19.90;;;8.40;98.30;;;;;;4097935;29;20501;-81
2021/05/30 03:50:10;;;;;;;36.83;19.47;;;8.60;98.30;;;;;;4098620;29;20462;-81
2021/05/30 03:52:13;;;;;;;49.23;18.87;;;8.60;98.30;;;;;;4097366;29;20535;-80
2021/05/30 03:54:23;;;;;;;40.70;17.63;;;8.60;98.30;;;;;;4097065;28;20467;-81
2021/05/30 03:56:25;;;;;;;58.83;20.93;;;8.50;98.30;;;;;;4097156;29;20439;-80
2021/05/30 03:58:28;;;;;;;38.30;20.73;;;8.50;98.30;;;;;;4097520;29;20462;-81
2021/05/30 04:00:30;;;;;;;30.43;19.33;;;8.60;98.30;;;;;;4097794;29;20567;-81
2021/05/30 04:02:33;;;;;;;33.17;19.27;;;8.70;98.30;;;;;;4097066;29;20848;-80
2021/05/30 04:04:35;;;;;;;35.70;22.40;;;8.90;98.30;;;;;;4097194;28;20618;-80
2021/05/30 04:06:38;;;;;;;32.13;18.37;;;9.10;98.30;;;;;;4097523;29;20477;-80
2021/05/30 04:08:41;;;;;;;38.57;17.47;;;9.20;98.30;;;;;;4097519;29;20469;-80
2021/05/30 04:10:44;;;;;;;32.97;17.80;;;9.30;98.30;;;;;;4097406;28;20509;-81
2021/05/30 04:12:47;;;;;;;35.23;17.80;;;9.40;98.30;;;;;;4098394;29;20473;-80
2021/05/30 04:14:49;;;;;;;34.63;18.70;;;9.60;98.30;;;;;;4097574;28;20497;-80
2021/05/30 04:16:52;;;;;;;32.63;16.73;;;9.60;98.30;;;;;;4098335;29;20491;-80
2021/05/30 04:18:54;;;;;;;27.33;16.60;;;9.70;98.30;;;;;;4096737;29;20570;-80
2021/05/30 04:20:57;;;;;;;38.70;18.17;;;9.80;98.30;;;;;;4097230;29;21042;-80
2021/05/30 04:22:59;;;;;;;31.27;17.77;;;10.00;98.30;;;;;;4097152;29;20491;-81
2021/05/30 04:25:03;;;;;;;28.87;17.70;;;10.00;98.30;;;;;;4096855;28;20485;-82
2021/05/30 04:27:06;;;;;;;25.83;17.00;;;10.10;98.30;;;;;;4098182;29;20469;-82
2021/05/30 04:29:09;;;;;;;24.30;15.67;;;10.10;98.30;;;;;;4096805;29;20469;-81
2021/05/30 04:31:12;;;;;;;38.80;18.07;;;10.20;98.30;;;;;;4096882;28;20504;-81
2021/05/30 04:33:14;;;;;;;32.23;18.53;;;10.30;98.30;;;;;;4097435;28;20556;-82
2021/05/30 04:35:17;;;;;;;28.40;17.23;;;10.30;98.30;;;;;;4096978;29;20465;-82
2021/05/30 04:37:19;;;;;;;37.13;18.60;;;10.30;98.30;;;;;;4098145;29;20929;-80
2021/05/30 04:39:22;;;;;;;26.33;17.13;;;10.30;98.30;;;;;;4097739;29;20497;-81
2021/05/30 04:41:25;;;;;;;32.30;19.13;;;10.30;98.30;;;;;;4097185;29;20990;-81
2021/05/30 04:43:27;;;;;;;50.80;18.90;;;10.40;98.30;;;;;;4097299;28;20468;-81
2021/05/30 04:45:30;;;;;;;39.93;19.43;;;10.30;98.30;;;;;;4096618;29;20468;-82
2021/05/30 04:47:32;;;;;;;37.20;19.37;;;10.10;98.30;;;;;;4097282;29;20481;-81
2021/05/30 04:49:35;;;;;;;27.80;17.87;;;10.10;98.30;;;;;;4097526;29;20715;-82
2021/05/30 04:51:37;;;;;;;40.40;20.03;;;10.10;98.30;;;;;;4097332;29;21000;-81
2021/05/30 04:53:41;;;;;;;55.70;19.93;;;10.20;98.30;;;;;;4097930;28;21006;-81
2021/05/30 04:55:44;;;;;;;56.97;20.13;;;10.20;98.30;;;;;;4096005;29;20596;-81
2021/05/30 04:57:47;;;;;;;39.60;17.57;;;10.20;98.30;;;;;;4096617;29;20898;-83
2021/05/30 04:59:50;;;;;;;34.37;18.23;;;10.20;98.30;;;;;;4097681;29;20484;-81
2021/05/30 05:01:52;;;;;;;30.50;16.67;;;10.20;98.30;;;;;;4098044;29;20473;-80
2021/05/30 05:03:55;;;;;;;30.60;18.50;;;10.10;98.30;;;;;;4096386;28;21036;-81
2021/05/30 05:05:57;;;;;;;42.30;19.00;;;10.00;98.30;;;;;;4096502;29;20465;-84
2021/05/30 05:08:03;;;;;;;31.37;18.70;;;10.00;98.30;;;;;;4096768;29;20601;-81
2021/05/30 05:10:07;;;;;;;37.30;19.43;;;10.10;98.30;;;;;;4097375;29;20471;-81
2021/05/30 05:12:11;;;;;;;46.53;19.80;;;10.10;98.30;;;;;;4096376;29;20969;-81
2021/05/30 05:14:14;;;;;;;66.80;30.57;;;10.10;98.30;;;;;;4097354;28;20493;-81
2021/05/30 05:16:16;;;;;;;59.93;25.27;;;10.20;98.30;;;;;;4098206;29;20477;-81
2021/05/30 05:18:21;;;;;;;61.50;28.23;;;10.20;98.30;;;;;;4096984;29;20480;-81
2021/05/30 05:20:24;;;;;;;116.83;66.90;;;10.20;98.30;;;;;;4096945;29;20532;-81
2021/05/30 05:22:26;;;;;;;34.70;20.67;;;10.10;98.30;;;;;;4096892;29;20492;-81
2021/05/30 05:24:35;;;;;;;37.37;19.83;;;10.10;98.30;;;;;;4130000;23;20529;-83
2021/05/30 05:26:37;;;;;;;33.23;19.37;;;10.10;98.30;;;;;;4076831;29;20474;-82
2021/05/30 05:28:40;;;;;;;34.10;19.30;;;10.10;98.30;;;;;;4073735;29;20471;-82
2021/05/30 05:30:45;;;;;;;32.40;17.93;;;10.10;98.30;;;;;;4071037;29;20476;-82
2021/05/30 05:32:47;;;;;;;30.97;18.40;;;10.10;98.30;;;;;;4072236;29;20481;-82
2021/05/30 05:34:50;;;;;;;34.90;18.90;;;10.00;98.30;;;;;;4074408;29;20498;-82
2021/05/30 05:36:52;;;;;;;38.30;18.40;;;10.00;98.30;;;;;;4072998;29;20470;-82
2021/05/30 05:38:55;;;;;;;38.73;21.13;;;9.90;98.30;;;;;;4072752;29;20510;-82
2021/05/30 05:40:57;;;;;;;33.03;19.90;;;9.90;98.30;;;;;;4072207;29;20529;-82
2021/05/30 05:43:00;;;;;;;31.80;19.27;;;10.10;98.30;;;;;;4072061;29;20479;-83
2021/05/30 05:45:13;;;;;;;28.43;19.00;;;10.20;98.30;;;;;;4070878;29;20505;-82
2021/05/30 05:47:17;;;;;;;37.70;19.23;;;10.40;98.30;;;;;;4076472;29;20557;-82
2021/05/30 05:49:20;;;;;;;34.23;20.20;;;10.50;98.30;;;;;;4069677;29;20493;-82
2021/05/30 05:51:22;;;;;;;38.30;19.27;;;10.40;98.30;;;;;;4074825;29;20836;-82
2021/05/30 05:53:25;;;;;;;32.67;19.10;;;10.50;98.30;;;;;;4073957;29;20463;-82
2021/05/30 05:55:33;;;;;;;29.90;18.90;;;10.50;98.30;;;;;;4074535;29;20483;-83
2021/05/30 05:57:37;;;;;;;31.50;17.77;;;10.60;98.30;;;;;;4074518;29;20849;-83
2021/05/30 05:59:39;;;;;;;30.07;16.20;;;10.50;98.30;;;;;;4076819;29;20499;-82
2021/05/30 06:01:42;;;;;;;26.40;17.37;;;10.30;98.30;;;;;;4074375;29;20494;-82
2021/05/30 06:03:47;;;;;;;31.87;17.77;;;10.30;98.30;;;;;;4071352;29;20466;-83
2021/05/30 06:05:49;;;;;;;26.87;17.30;;;10.40;98.30;;;;;;4072039;29;20475;-82
2021/05/30 06:07:53;;;;;;;30.87;17.90;;;10.50;98.30;;;;;;4072579;29;21206;-83
2021/05/30 06:09:56;;;;;;;43.73;26.47;;;10.70;98.30;;;;;;4075004;29;20475;-82
2021/05/30 06:11:58;;;;;;;74.00;41.23;;;10.80;98.30;;;;;;4072929;29;20459;-81
2021/05/30 06:14:00;;;;;;;57.90;32.67;;;10.90;98.30;;;;;;4078469;29;21021;-83
2021/05/30 06:16:05;;;;;;;53.87;32.63;;;11.00;98.30;;;;;;4078450;29;20496;-83
2021/05/30 06:18:11;;;;;;;33.10;20.03;;;11.20;98.30;;;;;;4078965;29;20470;-83
2021/05/30 06:20:15;;;;;;;29.17;18.30;;;11.30;98.30;;;;;;4075907;29;21103;-82
2021/05/30 06:22:18;;;;;;;52.67;30.33;;;11.30;98.30;;;;;;4081829;29;20482;-83
2021/05/30 06:24:20;;;;;;;46.37;26.03;;;11.30;98.30;;;;;;4089509;29;20558;-83
2021/05/30 06:26:22;;;;;;;68.37;38.83;;;11.20;98.30;;;;;;4088676;29;20468;-82
2021/05/30 06:28:25;;;;;;;27.67;17.27;;;11.10;98.30;;;;;;4089805;29;20466;-83
2021/05/30 06:30:29;;;;;;;31.97;20.40;;;11.00;98.30;;;;;;4088586;29;20479;-83
2021/05/30 06:32:31;;;;;;;27.37;18.17;;;10.90;98.30;;;;;;4089353;29;20462;-83
2021/05/30 06:34:34;;;;;;;31.50;19.60;;;10.90;98.30;;;;;;4088696;29;20502;-82
2021/05/30 06:36:39;;;;;;;34.13;18.20;;;11.00;98.30;;;;;;4090469;29;20468;-83
2021/05/30 06:38:41;;;;;;;28.67;18.50;;;11.10;98.30;;;;;;4087466;29;20553;-83
2021/05/30 06:40:44;;;;;;;31.40;19.63;;;11.10;98.30;;;;;;4087743;29;21005;-83
2021/05/30 06:42:46;;;;;;;35.17;21.00;;;11.20;98.30;;;;;;4085674;29;20467;-83
2021/05/30 06:44:52;;;;;;;36.57;20.33;;;11.20;98.30;;;;;;4086593;29;20508;-83
2021/05/30 06:46:54;;;;;;;35.43;20.03;;;11.30;98.30;;;;;;4085720;29;20510;-83
2021/05/30 06:48:58;;;;;;;32.10;21.20;;;11.50;98.30;;;;;;4083814;29;20467;-82
2021/05/30 06:51:15;;;;;;;36.47;19.70;;;11.60;98.30;;;;;;4085716;29;20477;-83
2021/05/30 06:53:18;;;;;;;40.10;21.40;;;11.70;98.30;;;;;;4085538;29;20485;-83
2021/05/30 06:55:22;;;;;;;37.87;21.10;;;11.60;98.30;;;;;;4085494;29;20865;-82
2021/05/30 06:57:25;;;;;;;35.17;21.30;;;11.50;98.30;;;;;;4081421;29;20836;-83
2021/05/30 06:59:28;;;;;;;31.07;18.73;;;11.60;98.30;;;;;;4075510;29;20889;-83
2021/05/30 07:01:31;;;;;;;41.10;21.20;;;11.70;98.30;;;;;;4076119;29;21003;-83
2021/05/30 07:03:35;;;;;;;56.43;35.27;;;11.80;98.30;;;;;;4074186;29;20984;-83
2021/05/30 07:05:37;;;;;;;38.50;22.40;;;11.90;98.30;;;;;;4073431;29;20563;-83
2021/05/30 07:07:40;;;;;;;33.17;22.80;;;11.90;98.30;;;;;;4075056;29;20534;-84
2021/05/30 07:09:44;;;;;;;35.10;22.20;;;11.80;98.30;;;;;;4074203;29;20548;-84
2021/05/30 07:11:47;;;;;;;32.13;21.90;;;11.90;98.30;;;;;;4078330;29;20496;-83
2021/05/30 07:13:49;;;;;;;35.43;21.97;;;12.00;98.30;;;;;;4074424;29;20478;-83
2021/05/30 07:15:52;;;;;;;31.07;21.03;;;12.20;98.30;;;;;;4074001;29;20482;-83
2021/05/30 07:17:57;;;;;;;27.93;21.17;;;12.50;98.30;;;;;;4074560;29;20557;-83
2021/05/30 07:19:59;;;;;;;32.53;20.90;;;12.60;98.30;;;;;;4074226;29;20502;-83
2021/05/30 07:22:08;;;;;;;28.10;22.63;;;12.60;98.30;;;;;;4074824;29;20482;-83
2021/05/30 07:24:10;;;;;;;28.77;20.20;;;12.50;98.30;;;;;;4073746;29;20502;-83
2021/05/30 07:26:14;;;;;;;27.97;20.00;;;12.40;98.30;;;;;;4074503;29;20478;-83
2021/05/30 07:28:20;;;;;;;26.23;18.93;;;12.50;98.30;;;;;;4075101;29;20506;-83
2021/05/30 07:30:24;;;;;;;27.80;18.70;;;12.40;98.30;;;;;;4074153;29;20486;-83
2021/05/30 07:32:27;;;;;;;24.90;17.53;;;12.60;98.30;;;;;;4075115;29;20482;-83
2021/05/30 07:34:29;;;;;;;29.53;19.00;;;12.70;98.30;;;;;;4077142;29;20490;-83
2021/05/30 07:36:32;;;;;;;28.83;17.17;;;12.70;98.30;;;;;;4075088;29;20597;-83
2021/05/30 07:38:35;;;;;;;26.07;18.50;;;12.80;98.30;;;;;;4073481;29;20481;-83
2021/05/30 07:40:38;;;;;;;29.67;18.67;;;13.10;98.30;;;;;;4074724;29;20495;-83
2021/05/30 07:42:41;;;;;;;30.90;18.10;;;13.40;98.30;;;;;;4079803;29;20541;-83
2021/05/30 07:44:44;;;;;;;27.37;18.97;;;13.40;98.30;;;;;;4078639;29;20974;-83
2021/05/30 07:46:47;;;;;;;25.80;18.23;;;13.40;98.30;;;;;;4078422;29;20479;-82
2021/05/30 07:48:49;;;;;;;28.30;18.40;;;13.50;98.30;;;;;;4078258;29;20470;-82
2021/05/30 07:50:52;;;;;;;25.50;17.67;;;13.60;98.30;;;;;;4077709;29;21029;-82
2021/05/30 07:52:54;;;;;;;22.40;16.77;;;13.70;98.30;;;;;;4076179;29;20474;-82
2021/05/30 07:54:57;;;;;;;20.17;15.63;;;13.90;98.30;;;;;;4076796;29;20560;-81
2021/05/30 07:56:59;;;;;;;24.50;15.60;;;13.90;98.30;;;;;;4077083;29;20903;-82
2021/05/30 07:59:03;;;;;;;22.80;16.97;;;14.20;98.30;;;;;;4079788;29;20478;-82
2021/05/30 08:01:05;;;;;;;22.80;17.80;;;14.30;98.30;;;;;;4072760;29;20488;-83
2021/05/30 08:03:08;;;;;;;32.67;21.20;;;14.40;98.30;;;;;;4077321;29;20477;-83
2021/05/30 08:05:14;;;;;;;25.33;18.53;;;14.40;98.30;;;;;;4073339;29;20578;-84
2021/05/30 08:07:16;;;;;;;24.23;17.20;;;14.50;98.30;;;;;;4075873;29;20554;-84
2021/05/30 08:09:22;;;;;;;21.83;15.20;;;14.40;98.30;;;;;;4076960;29;20526;-83
2021/05/30 08:11:25;;;;;;;20.10;15.23;;;14.50;98.30;;;;;;4081694;29;20560;-83
2021/05/30 08:13:28;;;;;;;19.13;15.43;;;14.50;98.30;;;;;;4078203;29;20470;-82
2021/05/30 08:15:31;;;;;;;19.40;13.77;;;14.60;98.30;;;;;;4082696;29;20588;-82
2021/05/30 08:17:34;;;;;;;20.00;14.53;;;14.70;98.30;;;;;;4085605;29;20478;-82
2021/05/30 08:19:37;;;;;;;22.97;14.53;;;14.70;98.30;;;;;;4083116;29;20500;-82
2021/05/30 08:21:41;;;;;;;20.83;13.60;;;14.70;98.30;;;;;;4083076;29;20479;-82
2021/05/30 08:23:44;;;;;;;18.73;12.67;;;14.70;98.30;;;;;;4084184;29;20518;-83
2021/05/30 08:25:47;;;;;;;14.57;12.40;;;14.70;98.30;;;;;;4079082;29;21088;-82
2021/05/30 08:27:50;;;;;;;17.17;12.30;;;14.80;98.30;;;;;;4077841;29;20552;-82
2021/05/30 08:29:52;;;;;;;19.57;12.60;;;14.70;98.30;;;;;;4078099;29;20565;-82
2021/05/30 08:31:56;;;;;;;15.87;12.20;;;14.70;98.30;;;;;;4077987;29;20565;-82
2021/05/30 08:33:58;;;;;;;14.37;12.03;;;14.90;98.30;;;;;;4080988;29;20500;-82
2021/05/30 08:36:01;;;;;;;17.30;12.33;;;15.20;98.30;;;;;;4082264;29;20565;-82
2021/05/30 08:38:03;;;;;;;18.43;13.70;;;15.40;98.30;;;;;;4078945;29;20467;-82
2021/05/30 08:40:18;;;;;;;18.83;13.73;;;15.50;98.30;;;;;;4083904;29;20545;-83
2021/05/30 08:42:22;;;;;;;18.73;13.60;;;15.70;98.30;;;;;;4085207;29;21163;-83
2021/05/30 08:44:25;;;;;;;20.43;13.90;;;15.70;98.30;;;;;;4081372;29;20508;-82
2021/05/30 08:46:29;;;;;;;15.93;12.67;;;15.70;98.30;;;;;;4081857;29;20475;-82
2021/05/30 08:48:32;;;;;;;16.90;12.00;;;15.80;98.30;;;;;;4086739;29;20489;-83
2021/05/30 08:50:36;;;;;;;18.10;12.57;;;15.80;98.30;;;;;;4086821;29;20529;-83
2021/05/30 08:52:38;;;;;;;16.47;12.77;;;15.90;98.30;;;;;;4087796;29;20475;-82
2021/05/30 08:54:41;;;;;;;19.73;13.77;;;16.00;98.30;;;;;;4088459;29;20482;-83
2021/05/30 08:56:47;;;;;;;18.80;13.40;;;16.10;98.30;;;;;;4081904;29;20906;-83
2021/05/30 08:58:51;;;;;;;18.90;12.80;;;16.30;98.30;;;;;;4081985;29;20566;-82
2021/05/30 09:01:08;;;;;;;26.07;14.33;;;16.30;98.30;;;;;;4079944;29;20503;-83
2021/05/30 09:03:11;;;;;;;18.27;14.90;;;16.40;98.30;;;;;;4085005;29;20474;-82
2021/05/30 09:05:17;;;;;;;17.17;13.57;;;16.50;98.30;;;;;;4083985;29;21010;-82
2021/05/30 09:07:38;;;;;;;19.50;13.20;;;16.70;98.30;;;;;;4083654;29;20508;-83
2021/05/30 09:09:42;;;;;;;22.83;16.30;;;16.80;98.30;;;;;;4085035;29;21159;-82
2021/05/30 09:11:48;;;;;;;15.93;12.83;;;16.90;98.30;;;;;;4088603;29;20498;-82
2021/05/30 09:13:55;;;;;;;21.73;14.13;;;16.80;98.30;;;;;;4090708;29;20467;-82
2021/05/30 09:16:08;;;;;;;18.97;14.10;;;16.80;98.30;;;;;;4091601;29;20466;-82
2021/05/30 09:18:27;;;;;;;19.33;12.90;;;16.90;98.30;;;;;;4089629;29;20954;-84
2021/05/30 09:20:49;;;;;;;14.43;12.10;;;17.00;98.30;;;;;;4089957;29;20509;-82
2021/05/30 09:22:52;;;;;;;18.00;12.00;;;17.20;98.30;;;;;;4089478;29;20538;-83
2021/05/30 09:25:24;;;;;;;19.53;12.07;;;17.30;98.30;;;;;;4080163;29;20494;-82
2021/05/30 09:27:27;;;;;;;20.50;12.63;;;17.70;98.30;;;;;;4081298;29;20485;-82
2021/05/30 09:29:30;;;;;;;16.97;12.20;;;17.80;98.30;;;;;;4080800;29;20474;-82
2021/05/30 09:31:34;;;;;;;16.17;12.37;;;17.80;98.30;;;;;;4082971;29;20478;-82
2021/05/30 09:33:37;;;;;;;14.50;12.00;;;17.90;98.30;;;;;;4079529;29;20483;-82
2021/05/30 09:36:05;;;;;;;14.60;11.87;;;17.80;98.30;;;;;;4082768;29;20517;-82
2021/05/30 09:38:09;;;;;;;15.87;11.90;;;17.50;98.30;;;;;;4083153;29;20570;-82
2021/05/30 09:40:13;;;;;;;15.17;10.57;;;17.50;98.30;;;;;;4082388;29;21003;-83
2021/05/30 09:42:22;;;;;;;13.67;11.40;;;17.60;98.30;;;;;;4078001;29;20569;-83
2021/05/30 09:44:30;;;;;;;21.87;15.20;;;17.90;98.30;;;;;;4074351;29;20848;-83
2021/05/30 09:46:34;;;;;;;18.23;12.83;;;18.10;98.30;;;;;;4077667;29;20497;-84
2021/05/30 09:48:42;;;;;;;22.77;13.13;;;18.10;98.30;;;;;;4073979;29;20471;-82
2021/05/30 09:51:02;;;;;;;13.13;11.37;;;18.20;98.30;;;;;;4081757;29;21043;-82
2021/05/30 09:53:07;;;;;;;18.03;11.50;;;18.30;97.90;;;;;;4083169;29;21134;-82
2021/05/30 09:55:14;;;;;;;14.80;11.60;;;18.30;97.00;;;;;;4081843;29;20494;-83
2021/05/30 09:57:17;;;;;;;15.70;10.70;;;18.40;96.70;;;;;;4078863;29;20478;-83
2021/05/30 09:59:21;;;;;;;15.27;11.60;;;18.70;96.50;;;;;;4078879;29;20478;-83
2021/05/30 10:01:25;;;;;;;14.23;11.17;;;18.70;96.40;;;;;;4073484;29;21061;-84
2021/05/30 10:03:28;;;;;;;12.90;9.80;;;18.90;97.10;;;;;;4081126;29;20474;-83
2021/05/30 10:05:31;;;;;;;14.97;12.23;;;19.00;96.00;;;;;;4082933;29;20502;-83
2021/05/30 10:07:41;;;;;;;15.97;10.77;;;19.00;95.10;;;;;;4081544;29;20484;-82
2021/05/30 10:09:46;;;;;;;14.87;11.27;;;19.10;96.30;;;;;;4083904;29;20470;-83
2021/05/30 10:11:49;;;;;;;14.63;11.37;;;19.30;95.80;;;;;;4080225;29;20470;-82
2021/05/30 10:13:51;;;;;;;16.03;10.73;;;19.30;94.90;;;;;;4074994;29;20515;-82
2021/05/30 10:15:57;;;;;;;20.40;13.40;;;19.30;95.60;;;;;;4074402;29;20581;-82
2021/05/30 10:18:08;;;;;;;15.83;12.80;;;19.20;95.10;;;;;;4073427;29;20510;-82
2021/05/30 10:20:15;;;;;;;16.80;14.53;;;19.30;96.30;;;;;;4075754;29;20499;-82
2021/05/30 10:22:18;;;;;;;16.07;12.10;;;19.60;96.00;;;;;;4075817;29;20890;-82
2021/05/30 10:24:22;;;;;;;15.93;10.93;;;19.80;95.20;;;;;;4073898;29;20502;-82
2021/05/30 10:26:25;;;;;;;15.30;11.67;;;20.10;94.40;;;;;;4074406;29;20481;-82
2021/05/30 10:28:28;;;;;;;13.47;10.90;;;20.10;93.20;;;;;;4075383;29;20984;-82